createdAt,value
2017-12-11T00:01:13.580Z,975.67
2017-12-11T00:02:13.516Z,975.57
2017-12-11T00:04:06.274Z,975.66
2017-12-11T00:05:06.198Z,975.63
2017-12-11T00:06:58.989Z,975.54
2017-12-11T00:07:58.897Z,975.66
2017-12-11T00:09:51.664Z,975.70
2017-12-11T00:10:51.577Z,975.64
2017-12-11T00:12:44.335Z,975.77
2017-12-11T00:13:44.270Z,975.82
2017-12-11T00:15:37.044Z,975.70
2017-12-11T00:16:36.946Z,975.54
2017-12-11T00:18:29.701Z,975.56
2017-12-11T00:19:29.631Z,975.60
2017-12-11T00:21:22.433Z,975.58
2017-12-11T00:22:22.337Z,975.56
2017-12-11T00:24:15.106Z,975.63
2017-12-11T00:25:15.029Z,975.57
2017-12-11T00:27:07.843Z,975.60
2017-12-11T00:28:07.734Z,975.51
2017-12-11T00:30:00.498Z,975.54
2017-12-11T00:31:00.428Z,975.56
2017-12-11T00:32:53.206Z,975.62
2017-12-11T00:33:53.193Z,975.63
2017-12-11T00:35:45.932Z,975.60
2017-12-11T00:36:45.832Z,975.59
2017-12-11T00:38:38.596Z,975.61
2017-12-11T00:39:38.535Z,975.56
2017-12-11T00:41:31.332Z,975.61
2017-12-11T00:42:31.248Z,975.60
2017-12-11T00:44:23.999Z,975.59
2017-12-11T00:45:23.943Z,975.61
2017-12-11T00:47:16.710Z,975.53
2017-12-11T00:48:16.664Z,975.55
2017-12-11T00:50:09.427Z,975.63
2017-12-11T00:51:09.351Z,975.61
2017-12-11T00:53:02.109Z,975.56
2017-12-11T00:54:02.023Z,975.59
2017-12-11T00:55:54.784Z,975.56
2017-12-11T00:56:54.707Z,975.51
2017-12-11T00:58:47.493Z,975.53
2017-12-11T00:59:47.409Z,975.49
2017-12-11T01:01:40.163Z,975.53
2017-12-11T01:02:40.102Z,975.54
2017-12-11T01:04:32.832Z,975.50
2017-12-11T01:05:32.754Z,975.51
2017-12-11T01:07:25.533Z,975.40
2017-12-11T01:08:25.453Z,975.31
2017-12-11T01:10:18.259Z,975.40
2017-12-11T01:11:18.186Z,975.39
2017-12-11T01:13:11.007Z,975.45
2017-12-11T01:14:10.886Z,975.40
2017-12-11T01:16:03.616Z,975.40
2017-12-11T01:17:03.567Z,975.65
2017-12-11T01:18:56.325Z,975.55
2017-12-11T01:19:56.259Z,975.59
2017-12-11T01:21:49.018Z,975.46
2017-12-11T01:22:48.943Z,975.56
2017-12-11T01:24:41.723Z,975.53
2017-12-11T01:25:41.642Z,975.54
2017-12-11T01:27:34.425Z,975.50
2017-12-11T01:28:34.316Z,975.59
2017-12-11T01:30:27.071Z,975.55
2017-12-11T01:31:27.010Z,975.60
2017-12-11T01:33:19.777Z,975.61
2017-12-11T01:34:19.713Z,975.56
2017-12-11T01:36:12.472Z,975.57
2017-12-11T01:37:12.383Z,975.53
2017-12-11T01:39:05.176Z,975.60
2017-12-11T01:40:05.123Z,975.58
2017-12-11T01:41:57.845Z,975.45
2017-12-11T01:42:57.772Z,975.49
2017-12-11T01:44:50.609Z,975.46
2017-12-11T01:45:50.473Z,975.44
2017-12-11T01:47:43.231Z,975.47
2017-12-11T01:48:43.176Z,975.44
2017-12-11T01:50:35.904Z,975.55
2017-12-11T01:51:35.824Z,975.50
2017-12-11T01:53:28.604Z,975.53
2017-12-11T01:54:28.520Z,975.57
2017-12-11T01:56:21.272Z,975.59
2017-12-11T01:57:21.216Z,975.60
2017-12-11T01:59:13.987Z,975.59
2017-12-11T02:00:13.919Z,975.68
2017-12-11T02:02:06.693Z,975.67
2017-12-11T02:03:06.594Z,975.69
2017-12-11T02:04:59.398Z,975.65
2017-12-11T02:05:59.312Z,975.74
2017-12-11T02:07:52.161Z,975.78
2017-12-11T02:08:52.089Z,975.78
2017-12-11T02:10:44.841Z,975.83
2017-12-11T02:11:44.800Z,975.83
2017-12-11T02:13:37.522Z,975.90
2017-12-11T02:14:37.449Z,975.84
2017-12-11T02:16:30.226Z,975.89
2017-12-11T02:17:30.144Z,975.90
2017-12-11T02:19:22.928Z,975.89
2017-12-11T02:20:22.849Z,975.92
2017-12-11T02:22:15.695Z,975.99
2017-12-11T02:23:15.560Z,976.00
2017-12-11T02:25:08.320Z,976.00
2017-12-11T02:26:08.253Z,976.06
2017-12-11T02:28:01.050Z,976.16
2017-12-11T02:29:00.956Z,976.14
2017-12-11T02:30:53.719Z,976.22
2017-12-11T02:31:53.640Z,976.20
2017-12-11T02:33:46.418Z,976.23
2017-12-11T02:34:46.337Z,976.24
2017-12-11T02:36:39.125Z,976.27
2017-12-11T02:37:39.034Z,976.20
2017-12-11T02:39:31.789Z,976.26
2017-12-11T02:40:31.774Z,976.25
2017-12-11T02:42:24.511Z,976.23
2017-12-11T02:43:24.425Z,976.24
2017-12-11T02:45:17.211Z,976.26
2017-12-11T02:46:17.129Z,976.30
2017-12-11T02:48:09.893Z,976.27
2017-12-11T02:49:09.830Z,976.32
2017-12-11T02:51:02.609Z,976.30
2017-12-11T02:52:02.530Z,976.31
2017-12-11T02:53:55.291Z,976.34
2017-12-11T02:54:55.227Z,976.39
2017-12-11T02:56:47.998Z,976.41
2017-12-11T02:57:47.929Z,976.39
2017-12-11T02:59:40.693Z,976.45
2017-12-11T03:00:40.634Z,976.52
2017-12-11T03:02:33.405Z,976.53
2017-12-11T03:03:33.338Z,976.57
2017-12-11T03:05:26.109Z,976.61
2017-12-11T03:06:26.016Z,976.71
2017-12-11T03:08:18.800Z,976.62
2017-12-11T03:09:18.717Z,976.64
2017-12-11T03:11:11.495Z,976.66
2017-12-11T03:12:11.416Z,976.57
2017-12-11T03:14:04.178Z,976.56
2017-12-11T03:15:04.105Z,976.49
2017-12-11T03:16:56.889Z,976.47
2017-12-11T03:17:56.803Z,976.44
2017-12-11T03:19:49.570Z,976.43
2017-12-11T03:20:49.504Z,976.37
2017-12-11T03:22:42.274Z,976.40
2017-12-11T03:23:42.202Z,976.33
2017-12-11T03:25:34.965Z,976.36
2017-12-11T03:26:34.905Z,976.41
2017-12-11T03:28:27.673Z,976.41
2017-12-11T03:29:27.599Z,976.42
2017-12-11T03:31:20.367Z,976.35
2017-12-11T03:32:20.279Z,976.36
2017-12-11T03:34:13.041Z,976.41
2017-12-11T03:35:12.961Z,976.44
2017-12-11T03:37:05.745Z,976.42
2017-12-11T03:38:05.654Z,976.45
2017-12-11T03:39:58.415Z,976.52
2017-12-11T03:40:58.358Z,976.51
2017-12-11T03:42:51.117Z,976.55
2017-12-11T03:43:51.037Z,976.67
2017-12-11T03:45:43.820Z,976.66
2017-12-11T03:46:43.734Z,976.74
2017-12-11T03:48:36.491Z,976.78
2017-12-11T03:49:36.410Z,976.82
2017-12-11T03:51:29.195Z,976.94
2017-12-11T03:52:29.189Z,976.98
2017-12-11T03:54:21.880Z,977.02
2017-12-11T03:55:21.813Z,977.02
2017-12-11T03:57:14.594Z,977.09
2017-12-11T03:58:14.524Z,977.13
2017-12-11T04:00:07.284Z,977.18
2017-12-11T04:01:07.220Z,977.17
2017-12-11T04:02:59.994Z,977.27
2017-12-11T04:03:59.924Z,977.33
2017-12-11T04:05:52.682Z,977.36
2017-12-11T04:06:52.603Z,977.32
2017-12-11T04:08:45.362Z,977.16
2017-12-11T04:09:45.282Z,977.29
2017-12-11T04:11:38.031Z,977.20
2017-12-11T04:12:37.970Z,977.30
2017-12-11T04:14:30.754Z,977.55
2017-12-11T04:15:30.674Z,977.64
2017-12-11T04:17:23.435Z,977.67
2017-12-11T04:18:23.392Z,977.68
2017-12-11T04:20:16.138Z,977.78
2017-12-11T04:21:16.053Z,977.82
2017-12-11T04:23:08.796Z,977.80
2017-12-11T04:24:08.729Z,977.94
2017-12-11T04:26:01.488Z,977.95
2017-12-11T04:27:01.425Z,978.02
2017-12-11T04:28:54.186Z,978.09
2017-12-11T04:29:54.096Z,978.19
2017-12-11T04:31:46.888Z,978.30
2017-12-11T04:32:46.801Z,978.32
2017-12-11T04:34:39.570Z,978.43
2017-12-11T04:35:39.487Z,978.44
2017-12-11T04:37:32.263Z,978.51
2017-12-11T04:38:32.189Z,978.48
2017-12-11T04:40:24.971Z,978.62
2017-12-11T04:41:24.891Z,978.70
2017-12-11T04:43:17.662Z,978.74
2017-12-11T04:44:17.591Z,978.80
2017-12-11T04:46:10.366Z,978.92
2017-12-11T04:47:10.292Z,978.93
2017-12-11T04:49:03.053Z,978.94
2017-12-11T04:50:02.995Z,978.97
2017-12-11T04:51:55.764Z,978.97
2017-12-11T04:52:55.696Z,979.13
2017-12-11T04:54:48.454Z,979.26
2017-12-11T04:55:48.400Z,979.21
2017-12-11T04:57:41.165Z,979.32
2017-12-11T04:58:41.082Z,979.38
2017-12-11T05:00:33.874Z,979.48
2017-12-11T05:01:33.778Z,979.53
2017-12-11T05:03:26.630Z,979.59
2017-12-11T05:04:26.478Z,979.58
2017-12-11T05:06:19.268Z,979.67
2017-12-11T05:07:19.169Z,979.68
2017-12-11T05:09:11.939Z,979.60
2017-12-11T05:10:11.867Z,979.66
2017-12-11T05:12:04.656Z,979.67
2017-12-11T05:13:04.567Z,979.68
2017-12-11T05:14:57.330Z,979.81
2017-12-11T05:15:57.267Z,979.76
2017-12-11T05:17:50.038Z,979.95
2017-12-11T05:18:49.966Z,979.98
2017-12-11T05:20:42.789Z,980.05
2017-12-11T05:21:42.735Z,980.09
2017-12-11T05:23:35.494Z,980.05
2017-12-11T05:24:35.412Z,980.12
2017-12-11T05:26:28.196Z,980.17
2017-12-11T05:27:28.110Z,980.17
2017-12-11T05:29:20.865Z,980.14
2017-12-11T05:30:20.787Z,980.23
2017-12-11T05:32:13.547Z,980.26
2017-12-11T05:33:13.484Z,980.33
2017-12-11T05:35:06.219Z,980.41
2017-12-11T05:36:06.143Z,980.33
2017-12-11T05:37:58.947Z,980.36
2017-12-11T05:38:58.844Z,980.40
2017-12-11T05:40:51.612Z,980.42
2017-12-11T05:41:51.543Z,980.24
2017-12-11T05:43:44.323Z,980.21
2017-12-11T05:44:44.247Z,980.21
2017-12-11T05:46:37.028Z,980.16
2017-12-11T05:47:36.944Z,980.21
2017-12-11T05:49:29.738Z,980.26
2017-12-11T05:50:29.644Z,980.30
2017-12-11T05:52:22.406Z,980.30
2017-12-11T05:53:22.346Z,980.30
2017-12-11T05:55:15.114Z,980.32
2017-12-11T05:56:15.050Z,980.37
2017-12-11T05:58:07.818Z,980.52
2017-12-11T05:59:07.782Z,980.50
2017-12-11T06:01:00.488Z,980.56
2017-12-11T06:02:00.414Z,980.44
2017-12-11T06:03:53.186Z,980.45
2017-12-11T06:04:53.111Z,980.55
2017-12-11T06:06:45.898Z,980.52
2017-12-11T06:07:45.830Z,980.63
2017-12-11T06:09:38.581Z,980.62
2017-12-11T06:10:38.509Z,980.58
2017-12-11T06:12:31.284Z,980.46
2017-12-11T06:13:31.225Z,980.58
2017-12-11T06:15:23.984Z,980.66
2017-12-11T06:16:23.914Z,980.63
2017-12-11T06:18:16.689Z,980.61
2017-12-11T06:19:16.624Z,980.69
2017-12-11T06:21:09.386Z,980.71
2017-12-11T06:22:09.321Z,980.74
2017-12-11T06:24:02.090Z,980.89
2017-12-11T06:25:02.025Z,980.94
2017-12-11T06:26:54.783Z,980.96
2017-12-11T06:27:54.706Z,980.96
2017-12-11T06:29:47.495Z,981.08
2017-12-11T06:30:47.409Z,981.15
2017-12-11T06:32:40.177Z,981.17
2017-12-11T06:33:40.121Z,981.24
2017-12-11T06:35:32.894Z,981.32
2017-12-11T06:36:32.840Z,981.36
2017-12-11T06:38:25.547Z,981.44
2017-12-11T06:39:25.491Z,981.45
2017-12-11T06:41:18.281Z,981.45
2017-12-11T06:42:18.194Z,981.45
2017-12-11T06:44:10.961Z,981.54
2017-12-11T06:45:10.896Z,981.60
2017-12-11T06:47:03.718Z,981.66
2017-12-11T06:48:03.655Z,981.65
2017-12-11T06:49:56.424Z,981.70
2017-12-11T06:50:56.358Z,981.72
2017-12-11T06:52:49.116Z,981.83
2017-12-11T06:53:49.062Z,981.81
2017-12-11T06:55:41.846Z,981.83
2017-12-11T06:56:41.765Z,981.82
2017-12-11T06:58:34.525Z,981.79
2017-12-11T06:59:34.447Z,981.88
2017-12-11T07:01:27.240Z,981.93
2017-12-11T07:02:27.196Z,981.91
2017-12-11T07:04:19.918Z,981.86
2017-12-11T07:05:19.904Z,981.85
2017-12-11T07:07:12.613Z,981.93
2017-12-11T07:08:12.532Z,981.95
2017-12-11T07:10:05.307Z,982.03
2017-12-11T07:11:05.233Z,982.07
2017-12-11T07:12:58.006Z,981.98
2017-12-11T07:13:57.952Z,981.97
2017-12-11T07:15:50.726Z,982.01
2017-12-11T07:16:50.640Z,981.96
2017-12-11T07:18:43.392Z,982.07
2017-12-11T07:19:43.332Z,982.07
2017-12-11T07:21:36.103Z,982.16
2017-12-11T07:22:36.036Z,982.25
2017-12-11T07:24:28.795Z,982.23
2017-12-11T07:25:28.740Z,982.28
2017-12-11T07:27:21.504Z,982.24
2017-12-11T07:28:21.476Z,982.28
2017-12-11T07:30:14.203Z,982.30
2017-12-11T07:31:14.148Z,982.37
2017-12-11T07:33:06.899Z,982.46
2017-12-11T07:34:06.825Z,982.53
2017-12-11T07:35:59.588Z,982.59
2017-12-11T07:36:59.510Z,982.60
2017-12-11T07:38:52.329Z,982.55
2017-12-11T07:39:52.246Z,982.57
2017-12-11T07:41:45.017Z,982.52
2017-12-11T07:42:44.905Z,982.45
2017-12-11T07:44:37.670Z,982.38
2017-12-11T07:45:37.605Z,982.36
2017-12-11T07:47:30.371Z,982.37
2017-12-11T07:48:30.284Z,982.33
2017-12-11T07:50:23.028Z,982.30
2017-12-11T07:51:22.987Z,982.33
2017-12-11T07:53:15.727Z,982.34
2017-12-11T07:54:15.657Z,982.42
2017-12-11T07:56:08.475Z,982.43
2017-12-11T07:57:08.406Z,982.41
2017-12-11T07:59:01.175Z,982.43
2017-12-11T08:00:01.093Z,982.46
2017-12-11T08:01:53.880Z,982.51
2017-12-11T08:02:53.790Z,982.45
2017-12-11T08:04:46.555Z,982.45
2017-12-11T08:05:46.466Z,982.58
2017-12-11T08:07:39.251Z,982.65
2017-12-11T08:08:39.143Z,982.64
2017-12-11T08:10:31.927Z,982.57
2017-12-11T08:11:31.832Z,982.57
2017-12-11T08:13:24.596Z,982.72
2017-12-11T08:14:24.520Z,982.77
2017-12-11T08:16:17.298Z,982.63
2017-12-11T08:17:17.230Z,982.62
2017-12-11T08:19:09.990Z,982.51
2017-12-11T08:20:09.919Z,982.60
2017-12-11T08:22:02.696Z,982.61
2017-12-11T08:23:02.633Z,982.63
2017-12-11T08:24:55.421Z,982.55
2017-12-11T08:25:55.343Z,982.55
2017-12-11T08:27:48.089Z,982.65
2017-12-11T08:28:48.031Z,982.77
2017-12-11T08:30:40.868Z,982.85
2017-12-11T08:31:40.714Z,982.92
2017-12-11T08:33:33.463Z,982.84
2017-12-11T08:34:33.393Z,982.86
2017-12-11T08:36:26.151Z,982.86
2017-12-11T08:37:26.080Z,982.89
2017-12-11T08:39:18.835Z,982.93
2017-12-11T08:40:18.782Z,982.86
2017-12-11T08:42:11.548Z,982.72
2017-12-11T08:43:11.463Z,982.73
2017-12-11T08:45:04.270Z,982.75
2017-12-11T08:46:04.191Z,982.81
2017-12-11T08:47:56.957Z,982.86
2017-12-11T08:48:56.868Z,982.85
2017-12-11T08:50:49.631Z,982.94
2017-12-11T08:51:49.549Z,982.93
2017-12-11T08:53:42.323Z,982.96
2017-12-11T08:54:42.248Z,982.98
2017-12-11T08:56:35.067Z,982.95
2017-12-11T08:57:34.949Z,982.93
2017-12-11T08:59:27.767Z,983.00
2017-12-11T09:00:27.653Z,982.94
2017-12-11T09:02:20.417Z,983.06
2017-12-11T09:03:20.351Z,983.13
2017-12-11T09:05:13.111Z,983.16
2017-12-11T09:06:13.052Z,983.10
2017-12-11T09:08:05.910Z,983.04
2017-12-11T09:09:05.755Z,983.05
2017-12-11T09:10:58.514Z,983.16
2017-12-11T09:11:58.444Z,983.14
2017-12-11T09:13:51.219Z,983.16
2017-12-11T09:14:51.138Z,983.14
2017-12-11T09:16:43.921Z,983.25
2017-12-11T09:17:43.838Z,983.27
2017-12-11T09:19:36.679Z,983.29
2017-12-11T09:20:36.613Z,983.30
2017-12-11T09:22:29.393Z,983.30
2017-12-11T09:23:29.293Z,983.29
2017-12-11T09:25:22.044Z,983.35
2017-12-11T09:26:21.980Z,983.39
2017-12-11T09:28:14.762Z,983.52
2017-12-11T09:29:14.691Z,983.57
2017-12-11T09:31:07.446Z,983.56
2017-12-11T09:32:07.386Z,983.61
2017-12-11T09:34:00.152Z,983.55
2017-12-11T09:35:00.091Z,983.56
2017-12-11T09:36:52.849Z,983.55
2017-12-11T09:37:52.774Z,983.62
2017-12-11T09:39:45.622Z,983.61
2017-12-11T09:40:45.511Z,983.69
2017-12-11T09:42:38.291Z,983.75
2017-12-11T09:43:38.209Z,983.78
2017-12-11T09:45:30.968Z,983.78
2017-12-11T09:46:30.922Z,983.74
2017-12-11T09:48:23.665Z,983.76
2017-12-11T09:49:23.572Z,983.74
2017-12-11T09:51:16.331Z,983.69
2017-12-11T09:52:16.271Z,983.63
2017-12-11T09:54:09.036Z,983.62
2017-12-11T09:55:08.989Z,983.64
2017-12-11T09:57:01.721Z,983.62
2017-12-11T09:58:01.656Z,983.64
2017-12-11T09:59:54.479Z,983.48
2017-12-11T10:00:54.361Z,983.37
2017-12-11T10:02:47.132Z,983.29
2017-12-11T10:03:47.077Z,983.29
2017-12-11T10:05:39.958Z,983.32
2017-12-11T10:06:39.905Z,983.29
2017-12-11T10:08:33.063Z,983.28
2017-12-11T10:09:33.020Z,983.37
2017-12-11T10:11:25.940Z,983.52
2017-12-11T10:12:25.819Z,983.45
2017-12-11T10:14:18.589Z,983.47
2017-12-11T10:15:18.523Z,983.40
2017-12-11T10:17:11.518Z,983.39
2017-12-11T10:18:11.383Z,983.44
2017-12-11T10:20:04.420Z,983.47
2017-12-11T10:21:04.260Z,983.40
2017-12-11T10:22:57.274Z,983.32
2017-12-11T10:23:57.235Z,983.27
2017-12-11T10:25:50.085Z,983.36
2017-12-11T10:26:49.921Z,983.33
2017-12-11T10:28:42.773Z,983.45
2017-12-11T10:29:42.689Z,983.43
2017-12-11T10:31:35.556Z,983.28
2017-12-11T10:32:35.776Z,983.36
2017-12-11T10:34:29.185Z,983.38
2017-12-11T10:35:29.121Z,983.41
2017-12-11T10:37:21.899Z,983.39
2017-12-11T10:38:21.850Z,983.42
2017-12-11T10:40:13.748Z,983.48
2017-12-11T10:41:13.669Z,983.43
2017-12-11T10:43:06.708Z,983.39
2017-12-11T10:44:06.568Z,983.26
2017-12-11T10:45:59.358Z,983.17
2017-12-11T10:46:59.260Z,983.17
2017-12-11T10:48:52.247Z,983.20
2017-12-11T10:49:51.997Z,983.20
2017-12-11T10:51:44.733Z,983.19
2017-12-11T10:52:44.719Z,983.22
2017-12-11T10:54:37.421Z,983.26
2017-12-11T10:55:37.350Z,983.30
2017-12-11T10:57:30.130Z,983.39
2017-12-11T10:58:30.061Z,983.42
2017-12-11T11:00:22.845Z,983.38
2017-12-11T11:01:22.812Z,983.38
2017-12-11T11:03:15.528Z,983.39
2017-12-11T11:04:15.537Z,983.43
2017-12-11T11:06:08.211Z,983.41
2017-12-11T11:07:08.161Z,983.34
2017-12-11T11:09:00.925Z,983.32
2017-12-11T11:10:00.858Z,983.29
2017-12-11T11:11:53.616Z,983.15
2017-12-11T11:12:53.561Z,983.13
2017-12-11T11:14:46.321Z,983.18
2017-12-11T11:15:46.242Z,983.22
2017-12-11T11:17:39.023Z,983.19
2017-12-11T11:18:38.946Z,983.21
2017-12-11T11:20:31.704Z,983.31
2017-12-11T11:21:31.704Z,983.26
2017-12-11T11:23:24.478Z,983.30
2017-12-11T11:24:24.330Z,983.24
2017-12-11T11:26:17.095Z,983.17
2017-12-11T11:27:17.044Z,983.16
2017-12-11T11:29:09.804Z,983.20
2017-12-11T11:30:09.762Z,983.23
2017-12-11T11:32:02.490Z,983.11
2017-12-11T11:33:02.424Z,983.08
2017-12-11T11:34:55.198Z,983.16
2017-12-11T11:35:55.138Z,983.17
2017-12-11T11:37:47.931Z,983.20
2017-12-11T11:38:47.861Z,983.22
2017-12-11T11:40:40.664Z,983.23
2017-12-11T11:41:40.608Z,983.20
2017-12-11T11:43:33.365Z,983.13
2017-12-11T11:44:33.274Z,983.10
2017-12-11T11:46:26.885Z,983.08
2017-12-11T11:47:26.818Z,983.03
2017-12-11T11:49:19.601Z,983.02
2017-12-11T11:50:19.492Z,983.01
2017-12-11T11:52:12.249Z,983.00
2017-12-11T11:53:12.186Z,983.01
2017-12-11T11:55:05.021Z,983.07
2017-12-11T11:56:04.932Z,983.07
2017-12-11T11:57:57.730Z,982.88
2017-12-11T11:58:57.623Z,982.78
2017-12-11T12:00:50.463Z,982.72
2017-12-11T12:01:50.405Z,982.79
2017-12-11T12:03:43.159Z,982.82
2017-12-11T12:04:43.101Z,982.73
2017-12-11T12:06:35.888Z,982.70
2017-12-11T12:07:35.805Z,982.65
2017-12-11T12:09:28.569Z,982.55
2017-12-11T12:10:28.507Z,982.47
2017-12-11T12:12:21.305Z,982.53
2017-12-11T12:13:21.223Z,982.59
2017-12-11T12:15:14.080Z,982.61
2017-12-11T12:16:14.013Z,982.51
2017-12-11T12:18:06.869Z,982.37
2017-12-11T12:19:06.787Z,982.34
2017-12-11T12:20:59.546Z,982.41
2017-12-11T12:21:59.481Z,982.41
2017-12-11T12:23:52.240Z,982.38
2017-12-11T12:24:52.157Z,982.36
2017-12-11T12:26:44.944Z,982.28
2017-12-11T12:27:44.863Z,982.29
2017-12-11T12:29:37.623Z,982.25
2017-12-11T12:30:37.543Z,982.25
2017-12-11T12:32:30.352Z,982.33
2017-12-11T12:33:30.253Z,982.42
2017-12-11T12:35:23.007Z,982.43
2017-12-11T12:36:22.945Z,982.34
2017-12-11T12:38:15.759Z,982.24
2017-12-11T12:39:15.675Z,982.29
2017-12-11T12:41:08.428Z,982.43
2017-12-11T12:42:08.408Z,982.48
2017-12-11T12:44:01.123Z,982.48
2017-12-11T12:45:01.058Z,982.50
2017-12-11T12:46:53.817Z,982.54
2017-12-11T12:47:53.771Z,982.59
2017-12-11T12:49:46.522Z,982.59
2017-12-11T12:50:46.474Z,982.59
2017-12-11T12:52:39.380Z,982.58
2017-12-11T12:53:39.178Z,982.56
2017-12-11T12:55:31.989Z,982.53
2017-12-11T12:56:31.893Z,982.56
2017-12-11T12:58:24.632Z,982.51
2017-12-11T12:59:24.545Z,982.54
2017-12-11T13:01:17.338Z,982.55
2017-12-11T13:02:17.234Z,982.50
2017-12-11T13:04:09.994Z,982.45
2017-12-11T13:05:09.960Z,982.43
2017-12-11T13:07:02.703Z,982.29
2017-12-11T13:08:02.630Z,982.26
2017-12-11T13:09:55.417Z,982.27
2017-12-11T13:10:55.338Z,982.27
2017-12-11T13:12:48.093Z,982.13
2017-12-11T13:13:48.059Z,982.03
2017-12-11T13:15:40.804Z,981.86
2017-12-11T13:16:40.771Z,981.84
2017-12-11T13:18:33.486Z,981.87
2017-12-11T13:19:33.406Z,982.02
2017-12-11T13:21:26.253Z,982.16
2017-12-11T13:22:26.173Z,982.14
2017-12-11T13:24:18.960Z,982.08
2017-12-11T13:25:18.879Z,982.02
2017-12-11T13:27:11.691Z,981.94
2017-12-11T13:28:11.566Z,981.94
2017-12-11T13:30:04.344Z,981.87
2017-12-11T13:31:04.260Z,981.90
2017-12-11T13:32:57.032Z,981.83
2017-12-11T13:33:56.960Z,981.82
2017-12-11T13:35:49.718Z,981.77
2017-12-11T13:36:49.654Z,981.76
2017-12-11T13:38:42.509Z,981.68
2017-12-11T13:39:42.360Z,981.69
2017-12-11T13:41:35.134Z,981.60
2017-12-11T13:42:35.068Z,981.57
2017-12-11T13:44:27.848Z,981.48
2017-12-11T13:45:27.765Z,981.44
2017-12-11T13:47:22.278Z,981.44
2017-12-11T13:48:22.235Z,981.47
2017-12-11T13:50:14.917Z,981.62
2017-12-11T13:51:14.845Z,981.62
2017-12-11T13:53:07.609Z,981.58
2017-12-11T13:54:07.549Z,981.68
2017-12-11T13:56:00.316Z,981.72
2017-12-11T13:57:00.252Z,981.71
2017-12-11T13:58:53.012Z,981.68
2017-12-11T13:59:52.941Z,981.70
2017-12-11T14:01:45.698Z,981.63
2017-12-11T14:02:45.613Z,981.60
2017-12-11T14:04:38.372Z,981.44
2017-12-11T14:05:38.307Z,981.44
2017-12-11T14:07:31.085Z,981.38
2017-12-11T14:08:31.009Z,981.27
2017-12-11T14:10:23.771Z,981.23
2017-12-11T14:11:23.709Z,981.19
2017-12-11T14:13:16.500Z,981.17
2017-12-11T14:14:16.422Z,981.14
2017-12-11T14:16:09.179Z,981.05
2017-12-11T14:17:09.102Z,981.04
2017-12-11T14:19:01.885Z,980.92
2017-12-11T14:20:01.822Z,980.92
2017-12-11T14:21:54.589Z,980.97
2017-12-11T14:22:54.523Z,981.02
2017-12-11T14:24:47.347Z,981.03
2017-12-11T14:25:47.226Z,980.98
2017-12-11T14:27:39.987Z,981.00
2017-12-11T14:28:39.895Z,980.99
2017-12-11T14:30:32.689Z,980.97
2017-12-11T14:31:32.608Z,980.95
2017-12-11T14:33:25.461Z,980.90
2017-12-11T14:34:25.354Z,980.90
2017-12-11T14:36:18.108Z,980.92
2017-12-11T14:37:18.044Z,980.89
2017-12-11T14:39:10.829Z,980.93
2017-12-11T14:40:10.754Z,980.93
2017-12-11T14:42:03.529Z,980.95
2017-12-11T14:43:03.450Z,980.90
2017-12-11T14:44:56.228Z,981.00
2017-12-11T14:45:56.148Z,981.03
2017-12-11T14:47:48.943Z,981.10
2017-12-11T14:48:48.858Z,981.07
2017-12-11T14:50:41.617Z,981.08
2017-12-11T14:51:41.562Z,981.15
2017-12-11T14:53:34.321Z,981.10
2017-12-11T14:54:34.266Z,981.10
2017-12-11T14:56:27.023Z,981.05
2017-12-11T14:57:26.941Z,981.05
2017-12-11T14:59:19.760Z,981.08
2017-12-11T15:00:19.637Z,981.05
2017-12-11T15:02:12.404Z,981.06
2017-12-11T15:03:12.331Z,981.08
2017-12-11T15:05:05.114Z,981.00
2017-12-11T15:06:05.030Z,980.99
2017-12-11T15:07:57.805Z,981.00
2017-12-11T15:08:57.730Z,981.02
2017-12-11T15:10:50.492Z,981.02
2017-12-11T15:11:50.428Z,980.97
2017-12-11T15:13:43.202Z,980.97
2017-12-11T15:14:43.130Z,980.92
2017-12-11T15:16:35.893Z,980.90
2017-12-11T15:17:35.831Z,980.86
2017-12-11T15:19:28.607Z,980.86
2017-12-11T15:20:28.536Z,980.86
2017-12-11T15:22:21.295Z,980.74
2017-12-11T15:23:21.239Z,980.72
2017-12-11T15:25:14.000Z,980.79
2017-12-11T15:26:13.918Z,980.88
2017-12-11T15:28:06.701Z,980.73
2017-12-11T15:29:06.616Z,980.61
2017-12-11T15:30:59.420Z,980.58
2017-12-11T15:31:59.313Z,980.58
2017-12-11T15:33:52.081Z,980.55
2017-12-11T15:34:52.009Z,980.52
2017-12-11T15:36:44.789Z,980.58
2017-12-11T15:37:44.707Z,980.64
2017-12-11T15:39:37.469Z,980.67
2017-12-11T15:40:37.425Z,980.67
2017-12-11T15:42:30.285Z,980.74
2017-12-11T15:43:30.184Z,980.68
2017-12-11T15:45:22.997Z,980.64
2017-12-11T15:46:22.905Z,980.68
2017-12-11T15:48:15.673Z,980.59
2017-12-11T15:49:15.604Z,980.60
2017-12-11T15:51:08.396Z,980.60
2017-12-11T15:52:08.299Z,980.56
2017-12-11T15:54:01.147Z,980.54
2017-12-11T15:55:00.994Z,980.51
2017-12-11T15:56:53.774Z,980.54
2017-12-11T15:57:53.696Z,980.64
2017-12-11T15:59:46.467Z,980.58
2017-12-11T16:00:46.393Z,980.65
2017-12-11T16:02:39.167Z,980.68
2017-12-11T16:03:39.096Z,980.66
2017-12-11T16:05:31.856Z,980.65
2017-12-11T16:06:31.797Z,980.68
2017-12-11T16:08:24.627Z,980.58
2017-12-11T16:09:24.517Z,980.59
2017-12-11T16:11:17.323Z,980.54
2017-12-11T16:12:17.238Z,980.51
2017-12-11T16:14:09.991Z,980.45
2017-12-11T16:15:09.974Z,980.41
2017-12-11T16:17:02.675Z,980.39
2017-12-11T16:18:02.592Z,980.36
2017-12-11T16:19:55.437Z,980.38
2017-12-11T16:20:55.348Z,980.37
2017-12-11T16:22:48.109Z,980.32
2017-12-11T16:23:48.026Z,980.31
2017-12-11T16:25:40.806Z,980.33
2017-12-11T16:26:40.741Z,980.33
2017-12-11T16:28:33.502Z,980.47
2017-12-11T16:29:33.430Z,980.51
2017-12-11T16:31:26.252Z,980.48
2017-12-11T16:32:26.105Z,980.50
2017-12-11T16:34:18.902Z,980.50
2017-12-11T16:35:18.835Z,980.48
2017-12-11T16:37:11.687Z,980.37
2017-12-11T16:38:11.613Z,980.37
2017-12-11T16:40:04.398Z,980.35
2017-12-11T16:41:04.358Z,980.35
2017-12-11T16:42:57.079Z,980.36
2017-12-11T16:43:57.012Z,980.26
2017-12-11T16:45:49.786Z,980.34
2017-12-11T16:46:49.716Z,980.43
2017-12-11T16:48:42.482Z,980.40
2017-12-11T16:49:42.406Z,980.35
2017-12-11T16:51:35.179Z,980.29
2017-12-11T16:52:35.124Z,980.30
2017-12-11T16:54:27.893Z,980.21
2017-12-11T16:55:27.804Z,980.27
2017-12-11T16:57:20.584Z,980.30
2017-12-11T16:58:20.503Z,980.30
2017-12-11T17:00:13.297Z,980.32
2017-12-11T17:01:13.210Z,980.34
2017-12-11T17:03:05.970Z,980.35
2017-12-11T17:04:05.902Z,980.39
2017-12-11T17:05:58.696Z,980.39
2017-12-11T17:06:58.630Z,980.41
2017-12-11T17:08:51.400Z,980.40
2017-12-11T17:09:51.309Z,980.45
2017-12-11T17:11:44.059Z,980.48
2017-12-11T17:12:43.994Z,980.46
2017-12-11T17:14:36.779Z,980.48
2017-12-11T17:15:36.699Z,980.45
2017-12-11T17:17:29.456Z,980.42
2017-12-11T17:18:29.431Z,980.41
2017-12-11T17:20:22.162Z,980.35
2017-12-11T17:21:22.098Z,980.34
2017-12-11T17:23:14.861Z,980.30
2017-12-11T17:24:14.799Z,980.33
2017-12-11T17:26:07.567Z,980.31
2017-12-11T17:27:07.503Z,980.28
2017-12-11T17:29:00.234Z,980.33
2017-12-11T17:30:00.158Z,980.26
2017-12-11T17:31:52.965Z,980.27
2017-12-11T17:32:52.882Z,980.29
2017-12-11T17:34:45.687Z,980.21
2017-12-11T17:35:45.617Z,980.19
2017-12-11T17:37:38.515Z,980.13
2017-12-11T17:38:38.329Z,980.10
2017-12-11T17:40:31.098Z,980.12
2017-12-11T17:41:31.026Z,980.18
2017-12-11T17:43:23.790Z,980.11
2017-12-11T17:44:23.726Z,980.08
2017-12-11T17:46:16.494Z,980.09
2017-12-11T17:47:16.422Z,980.09
2017-12-11T17:49:09.190Z,980.09
2017-12-11T17:50:09.135Z,980.14
2017-12-11T17:52:01.911Z,980.15
2017-12-11T17:53:01.841Z,980.13
2017-12-11T17:54:54.609Z,980.14
2017-12-11T17:55:54.544Z,980.10
2017-12-11T17:57:47.307Z,980.08